Time;durP1;ratioP1;P1;durP2;ratioP2;P2;SDS_P1;SDS_P2;PMS_P1;PMS_P2;Temp;Humidity;BMP_temperature;BMP_pressure;BME280_temperature;BME280_humidity;BME280_pressure;Samples;Min_cycle;Max_cycle;Signal;HPM_P1;HPM_P2
2022/08/17 00:02:15;;;;;;;11.68;10.02;;;;;;;20.93;59.27;99849.94;10403557;28;20073;-76
2022/08/17 00:07:28;;;;;;;14.13;10.20;;;;;;;20.62;60.18;99850.41;10383371;28;20068;-76
2022/08/17 00:12:31;;;;;;;16.38;11.13;;;;;;;20.94;59.55;99856.22;10380386;28;20037;-75
2022/08/17 00:17:48;;;;;;;12.43;9.73;;;;;;;21.05;58.69;99855.66;10385041;28;20092;-76
2022/08/17 00:23:02;;;;;;;15.02;10.65;;;;;;;20.95;58.89;99850.56;10377755;28;20553;-76
2022/08/17 00:28:06;;;;;;;13.98;9.48;;;;;;;20.97;58.74;99858.53;10395679;28;20049;-75
2022/08/17 00:33:12;;;;;;;11.48;9.63;;;;;;;20.90;58.30;99849.47;10406561;28;20064;-76
2022/08/17 00:38:18;;;;;;;11.93;9.07;;;;;;;21.07;57.72;99844.53;10389833;28;20049;-76
2022/08/17 00:43:29;;;;;;;14.93;9.00;;;;;;;21.10;57.38;99852.31;10376034;28;20491;-74
2022/08/17 00:48:34;;;;;;;11.02;8.35;;;;;;;21.13;57.53;99846.44;10391285;28;20105;-74
2022/08/17 00:53:42;;;;;;;10.43;8.55;;;;;;;21.19;57.53;99835.53;10375728;28;20041;-76
2022/08/17 00:58:45;;;;;;;12.98;8.52;;;;;;;21.09;57.68;99839.69;10394867;28;20071;-74
2022/08/17 01:03:50;;;;;;;10.75;8.93;;;;;;;20.86;58.51;99846.31;10377311;28;20441;-75
2022/08/17 01:08:55;;;;;;;10.63;9.52;;;;;;;20.85;59.05;99836.47;10364082;28;20070;-75
2022/08/17 01:13:59;;;;;;;10.32;9.18;;;;;;;20.72;59.63;99833.69;10401527;28;20087;-75
2022/08/17 01:19:07;;;;;;;11.13;9.90;;;;;;;20.65;59.77;99839.13;10379275;28;20057;-75
2022/08/17 01:24:11;;;;;;;12.43;9.85;;;;;;;20.63;59.72;99840.38;10398589;28;20045;-75
2022/08/17 01:29:15;;;;;;;11.90;10.70;;;;;;;20.57;59.17;99839.31;10403583;28;20045;-75
2022/08/17 01:34:19;;;;;;;13.10;9.90;;;;;;;20.38;59.15;99849.06;10385627;28;20046;-77
2022/08/17 01:39:31;;;;;;;15.48;10.73;;;;;;;20.45;59.55;99849.09;10374233;28;20042;-76
2022/08/17 01:44:35;;;;;;;10.70;9.70;;;;;;;20.42;59.27;99855.78;10392816;28;20042;-77
2022/08/17 01:49:40;;;;;;;10.65;9.20;;;;;;;20.34;59.64;99854.06;10405037;28;20477;-74
2022/08/17 01:54:47;;;;;;;11.82;10.68;;;;;;;20.24;59.68;99849.97;10391283;28;20068;-75
2022/08/17 01:59:50;;;;;;;12.90;10.57;;;;;;;20.02;60.28;99857.38;10374090;28;20050;-75
2022/08/17 02:04:53;;;;;;;12.85;10.65;;;;;;;19.89;60.78;99849.97;10385302;28;20088;-75
2022/08/17 02:09:57;;;;;;;11.52;10.15;;;;;;;19.84;60.89;99855.19;10411091;28;20057;-75
2022/08/17 02:15:01;;;;;;;10.88;9.60;;;;;;;19.79;61.29;99852.19;10389007;28;20045;-75
2022/08/17 02:20:06;;;;;;;13.50;10.32;;;;;;;19.81;61.16;99842.78;10394605;28;20129;-74
2022/08/17 02:25:13;;;;;;;10.88;9.52;;;;;;;19.76;61.07;99839.81;10393668;28;20038;-74
2022/08/17 02:30:16;;;;;;;10.32;9.32;;;;;;;19.74;61.27;99830.97;10379415;28;20056;-74
2022/08/17 02:35:39;;;;;;;13.20;9.27;;;;;;;19.83;61.10;99845.34;10411497;28;20045;-74
2022/08/17 02:40:43;;;;;;;10.55;9.32;;;;;;;19.75;60.94;99840.03;10394707;28;20418;-73
2022/08/17 02:45:46;;;;;;;11.25;10.15;;;;;;;19.71;61.41;99841.44;10406504;28;20091;-74
2022/08/17 02:50:49;;;;;;;11.00;9.30;;;;;;;19.70;61.29;99845.22;10392420;28;20064;-74
2022/08/17 02:55:53;;;;;;;9.88;8.82;;;;;;;19.56;61.44;99839.66;10393023;28;20518;-73
2022/08/17 03:00:56;;;;;;;10.23;9.18;;;;;;;19.56;61.46;99833.38;10397586;28;20054;-74
2022/08/17 03:06:00;;;;;;;11.40;9.93;;;;;;;19.38;61.67;99841.97;10390228;28;20038;-73
2022/08/17 03:11:05;;;;;;;13.07;10.15;;;;;;;19.19;62.40;99836.13;10390760;28;20064;-74
2022/08/17 03:16:08;;;;;;;13.07;10.40;;;;;;;19.19;62.35;99840.72;10399359;28;20041;-73
2022/08/17 03:21:11;;;;;;;12.02;9.80;;;;;;;19.23;62.26;99842.03;10392487;28;20049;-74
2022/08/17 03:26:15;;;;;;;12.10;10.15;;;;;;;19.32;62.01;99837.31;10387046;28;20049;-74
2022/08/17 03:31:20;;;;;;;11.88;8.82;;;;;;;19.33;61.83;99839.81;10390869;28;20210;-74
2022/08/17 03:36:23;;;;;;;9.52;8.23;;;;;;;19.35;61.53;99842.34;10398796;28;20045;-74
2022/08/17 03:41:27;;;;;;;11.38;9.25;;;;;;;19.37;61.52;99840.28;10390725;28;20046;-75
2022/08/17 03:57:12;;;;;;;10.40;9.30;;;;;;;19.04;62.42;99829.91;10396578;28;20486;-74
2022/08/17 04:02:19;;;;;;;9.93;8.40;;;;;;;19.08;62.44;99831.19;10408563;28;20045;-75
2022/08/17 04:07:26;;;;;;;10.45;8.93;;;;;;;19.06;62.57;99843.31;10393611;28;20100;-74
2022/08/17 04:12:43;;;;;;;9.82;8.60;;;;;;;19.24;62.07;99830.94;10404295;28;20121;-75
2022/08/17 04:17:46;;;;;;;9.15;8.15;;;;;;;19.21;62.07;99847.66;10394887;28;20049;-75
2022/08/17 04:22:57;;;;;;;9.70;8.52;;;;;;;19.26;61.92;99849.81;10408370;28;20100;-75
2022/08/17 04:28:02;;;;;;;9.80;8.75;;;;;;;19.33;61.64;99855.31;10396676;28;20057;-74
2022/08/17 04:33:12;;;;;;;11.05;9.95;;;;;;;19.20;61.64;99851.44;10377604;28;20045;-74
2022/08/17 04:38:18;;;;;;;10.02;8.77;;;;;;;19.21;61.89;99861.28;10383879;28;20073;-75
2022/08/17 04:43:24;;;;;;;11.30;10.10;;;;;;;19.22;61.79;99865.66;10384666;28;20053;-75
2022/08/17 04:48:29;;;;;;;12.07;10.68;;;;;;;19.28;61.79;99864.09;10401358;28;20061;-75
2022/08/17 04:53:39;;;;;;;12.77;9.95;;;;;;;19.39;61.27;99862.69;10364888;28;20406;-74
2022/08/17 04:58:46;;;;;;;12.50;10.10;;;;;;;19.34;61.37;99862.47;10394643;28;20540;-75
2022/08/17 05:03:49;;;;;;;9.27;8.30;;;;;;;19.39;61.27;99876.31;10396314;28;20124;-74
2022/08/17 05:08:53;;;;;;;14.13;10.30;;;;;;;19.52;60.90;99883.78;10396899;28;20553;-74
2022/08/17 05:13:58;;;;;;;14.50;10.35;;;;;;;19.49;60.80;99887.75;10394278;28;20057;-74
2022/08/17 05:19:01;;;;;;;10.05;8.23;;;;;;;19.66;60.71;99888.34;10403765;28;20057;-74
2022/08/17 05:24:04;;;;;;;12.10;8.80;;;;;;;19.89;60.03;99897.16;10390936;28;20042;-74
2022/08/17 05:29:29;;;;;;;10.85;7.72;;;;;;;20.14;59.77;99888.53;10390740;28;20173;-75
2022/08/17 05:34:37;;;;;;;9.07;8.23;;;;;;;20.20;59.19;99892.34;10393589;28;20037;-76
2022/08/17 05:39:40;;;;;;;10.45;9.30;;;;;;;20.10;59.16;99893.53;10375161;28;20129;-75
2022/08/17 05:44:44;;;;;;;11.60;9.88;;;;;;;20.31;59.03;99900.84;10387152;28;20477;-74
2022/08/17 05:49:47;;;;;;;11.20;9.13;;;;;;;20.41;58.46;99892.31;10385017;28;20104;-75
2022/08/17 05:55:03;;;;;;;13.25;9.82;;;;;;;20.37;58.54;99903.81;10380210;28;20052;-74
2022/08/17 06:00:15;;;;;;;12.73;8.95;;;;;;;20.46;58.96;99903.47;10405967;28;20483;-74
2022/08/17 06:05:35;;;;;;;11.88;8.73;;;;;;;20.70;58.74;99901.25;10409262;28;20044;-75
2022/08/17 06:10:45;;;;;;;12.30;10.13;;;;;;;20.72;58.40;99910.09;10404482;28;20057;-74
2022/08/17 06:16:02;;;;;;;11.68;8.20;;;;;;;20.83;57.95;99895.88;10410357;28;20064;-74
2022/08/17 06:21:07;;;;;;;13.35;10.60;;;;;;;20.91;57.72;99901.16;10387688;28;20050;-75
2022/08/17 06:26:15;;;;;;;12.10;9.25;;;;;;;21.14;57.38;99897.28;10381256;28;20042;-75
2022/08/17 06:31:28;;;;;;;16.15;10.20;;;;;;;21.52;57.05;99889.38;10393057;28;20447;-74
2022/08/17 06:36:48;;;;;;;12.27;9.70;;;;;;;21.79;55.59;99892.16;10380463;28;20414;-74
2022/08/17 06:42:01;;;;;;;14.63;9.38;;;;;;;22.00;54.82;99888.38;10379270;28;20059;-75
2022/08/17 06:47:11;;;;;;;11.40;8.18;;;;;;;22.25;55.22;99892.13;10411625;28;20038;-75
2022/08/17 06:52:20;;;;;;;10.70;8.48;;;;;;;22.57;54.23;99880.50;10397423;28;20495;-77
2022/08/17 06:57:51;;;;;;;13.82;8.93;;;;;;;22.87;53.31;99872.59;10409532;28;20517;-77
2022/08/17 07:03:01;;;;;;;12.13;8.70;;;;;;;23.07;52.84;99876.09;10413174;28;20049;-76
2022/08/17 07:08:11;;;;;;;17.33;8.50;;;;;;;23.22;52.71;99884.03;10430075;28;20033;-75
2022/08/17 07:13:24;;;;;;;11.65;7.75;;;;;;;23.60;52.81;99883.16;10430596;28;20487;-77
2022/08/17 07:18:31;;;;;;;9.43;7.10;;;;;;;23.90;50.40;99875.16;10389747;28;20046;-77
2022/08/17 07:23:48;;;;;;;9.32;7.60;;;;;;;23.98;50.16;99876.78;10388378;28;20077;-77
2022/08/17 07:28:51;;;;;;;10.93;7.68;;;;;;;24.34;49.13;99878.72;10402609;28;20099;-77
2022/08/17 07:34:13;;;;;;;8.70;6.63;;;;;;;24.76;49.40;99878.91;10404875;28;20406;-77
2022/08/17 07:39:26;;;;;;;7.23;6.53;;;;;;;24.92;47.38;99892.00;10384485;28;20053;-76
2022/08/17 07:44:29;;;;;;;8.68;6.25;;;;;;;25.07;48.08;99877.91;10397567;28;20041;-76
2022/08/17 07:49:39;;;;;;;9.77;6.75;;;;;;;25.45;47.27;99892.38;10391406;28;20048;-77
2022/08/17 07:54:42;;;;;;;8.00;6.53;;;;;;;25.80;46.68;99893.31;10396451;28;20041;-75
2022/08/17 08:00:18;;;;;;;7.28;6.13;;;;;;;26.06;45.92;99889.28;10403205;28;20045;-77
2022/08/17 08:05:29;;;;;;;6.90;6.15;;;;;;;26.02;45.13;99890.00;10403262;28;20041;-76
2022/08/17 08:11:00;;;;;;;10.48;6.43;;;;;;;26.15;45.33;99895.28;10412345;28;20041;-74
2022/08/17 08:16:23;;;;;;;7.82;5.07;;;;;;;26.45;45.73;99892.41;10410398;28;20049;-76
2022/08/17 08:21:40;;;;;;;10.07;5.78;;;;;;;26.71;44.37;99884.69;10419424;28;20044;-77
2022/08/17 08:26:54;;;;;;;7.22;5.13;;;;;;;26.35;43.29;99897.69;10402941;28;20046;-77
2022/08/17 08:32:07;;;;;;;13.68;6.25;;;;;;;26.33;43.83;99896.25;10404783;28;20061;-77
2022/08/17 08:37:21;;;;;;;9.85;4.85;;;;;;;26.43;43.48;99891.00;10405220;28;20033;-77
2022/08/17 08:42:44;;;;;;;9.25;5.00;;;;;;;26.72;43.36;99887.22;10391060;28;20434;-76
2022/08/17 08:48:06;;;;;;;8.95;5.45;;;;;;;26.98;43.64;99890.53;10407896;28;20557;-77
2022/08/17 08:53:35;;;;;;;9.02;5.35;;;;;;;27.46;42.32;99891.22;10402667;28;20213;-76
2022/08/17 08:58:49;;;;;;;6.70;5.15;;;;;;;27.91;42.55;99899.44;10388186;28;20453;-77
2022/08/17 09:04:18;;;;;;;10.98;5.32;;;;;;;28.30;41.49;99885.69;10397999;28;20046;-77
2022/08/17 09:09:40;;;;;;;6.95;4.95;;;;;;;28.62;40.24;99893.38;10376544;28;20108;-76
2022/08/17 09:14:51;;;;;;;7.28;4.97;;;;;;;29.19;40.28;99886.63;10389150;28;20037;-77
2022/08/17 09:20:00;;;;;;;7.72;4.10;;;;;;;29.01;39.48;99891.34;10397155;28;20045;-76
2022/08/17 09:25:09;;;;;;;8.82;4.47;;;;;;;28.40;39.44;99888.63;10407655;28;20095;-76
2022/08/17 09:30:13;;;;;;;6.63;4.32;;;;;;;28.60;39.64;99885.31;10403334;28;20065;-77
2022/08/17 09:35:21;;;;;;;10.27;4.30;;;;;;;29.93;39.11;99874.88;10406162;28;20414;-77
2022/08/17 09:40:32;;;;;;;9.60;4.38;;;;;;;30.34;37.70;99875.19;10410740;28;20806;-77
2022/08/17 09:45:42;;;;;;;7.22;4.32;;;;;;;31.88;36.13;99871.78;10413116;28;20593;-78
2022/08/17 09:50:51;;;;;;;5.95;4.30;;;;;;;32.04;34.16;99869.84;10418988;28;20046;-76
2022/08/17 09:56:30;;;;;;;8.73;4.40;;;;;;;32.17;33.66;99869.31;10427164;28;20053;-78
2022/08/17 10:01:38;;;;;;;5.90;3.40;;;;;;;31.20;34.60;99869.22;10395674;28;20064;-77
2022/08/17 10:06:51;;;;;;;5.15;3.80;;;;;;;30.88;35.17;99859.13;10391190;28;20064;-78
2022/08/17 10:12:19;;;;;;;4.75;3.70;;;;;;;31.01;36.16;99857.75;10396157;28;20084;-77
2022/08/17 10:17:29;;;;;;;4.60;3.63;;;;;;;31.05;35.66;99853.34;10414739;28;20041;-78
2022/08/17 10:28:08;;;;;;;4.15;3.75;;;;;;;30.68;35.57;99842.41;10406011;28;20048;-78
2022/08/17 10:33:26;;;;;;;8.23;3.70;;;;;;;30.30;35.65;99844.41;10395676;28;20049;-77
2022/08/17 10:38:45;;;;;;;9.85;4.68;;;;;;;30.34;36.18;99841.97;10412285;28;20047;-77
2022/08/17 10:44:00;;;;;;;7.55;4.07;;;;;;;30.28;35.16;99846.63;10397026;28;20037;-78
2022/08/17 10:49:34;;;;;;;5.18;3.45;;;;;;;30.34;35.18;99841.97;10365078;28;20046;-77
2022/08/17 10:55:05;;;;;;;3.47;3.05;;;;;;;30.40;34.10;99838.09;10407392;28;20038;-78
2022/08/17 11:00:14;;;;;;;6.40;2.75;;;;;;;31.07;33.94;99833.66;10398690;28;20053;-76
2022/08/17 11:05:44;;;;;;;4.18;3.45;;;;;;;31.14;32.80;99825.91;10402248;28;20048;-78
2022/08/17 11:11:06;;;;;;;5.38;2.80;;;;;;;30.30;34.45;99824.19;10376994;28;20077;-78
2022/08/17 11:16:27;;;;;;;4.43;2.70;;;;;;;29.67;35.05;99813.78;10423725;28;20034;-77
2022/08/17 11:21:58;;;;;;;3.47;3.07;;;;;;;30.14;34.54;99818.59;10412714;28;20056;-78
2022/08/17 11:27:06;;;;;;;5.72;3.17;;;;;;;30.21;33.97;99821.09;10406068;28;20038;-78
2022/08/17 11:32:35;;;;;;;4.72;3.08;;;;;;;30.33;34.28;99830.00;10417403;28;20049;-77
2022/08/17 11:37:50;;;;;;;6.20;3.17;;;;;;;30.37;34.51;99836.69;10422465;28;20045;-76
2022/08/17 11:43:23;;;;;;;4.20;3.00;;;;;;;29.79;34.86;99839.34;10454126;28;20053;-77
2022/08/17 11:54:00;;;;;;;4.90;3.40;;;;;;;29.30;35.09;99833.09;10384609;28;20049;-77
2022/08/17 11:59:59;;;;;;;3.40;3.10;;;;;;;29.47;35.70;99836.56;10397741;28;20053;-77
2022/08/17 12:05:26;;;;;;;6.03;3.28;;;;;;;29.85;34.74;99840.22;10387385;28;20069;-77
2022/08/17 12:10:33;;;;;;;3.45;2.92;;;;;;;31.10;32.91;99849.72;10400053;28;20137;-77
2022/08/17 12:15:41;;;;;;;4.47;3.17;;;;;;;31.88;31.57;99854.31;10404944;28;20141;-77
2022/08/17 12:20:51;;;;;;;10.05;3.17;;;;;;;31.25;32.69;99847.03;10420648;28;20049;-78
2022/08/17 12:26:04;;;;;;;4.47;3.17;;;;;;;30.54;33.57;99835.66;10416312;28;20068;-78
2022/08/17 12:31:15;;;;;;;4.60;3.80;;;;;;;30.09;34.42;99835.13;10411905;28;20052;-78
2022/08/17 12:36:24;;;;;;;4.13;3.30;;;;;;;29.60;34.94;99840.84;10412726;28;20487;-80
2022/08/17 12:41:39;;;;;;;3.65;3.28;;;;;;;29.47;35.37;99838.50;10416767;28;20283;-79
2022/08/17 12:46:50;;;;;;;3.50;3.20;;;;;;;29.04;35.84;99826.41;10416062;28;20771;-79
2022/08/17 12:52:01;;;;;;;4.17;2.87;;;;;;;29.16;36.43;99835.44;10398395;28;20041;-79
2022/08/17 12:57:14;;;;;;;5.00;3.65;;;;;;;28.82;36.09;99826.47;10397162;28;20048;-79
2022/08/17 13:02:41;;;;;;;3.78;3.00;;;;;;;29.08;36.13;99830.38;10398750;28;20073;-78
2022/08/17 13:07:46;;;;;;;7.10;3.47;;;;;;;28.98;35.85;99822.78;10374727;28;20054;-78
2022/08/17 13:12:51;;;;;;;8.50;3.78;;;;;;;28.79;36.59;99824.22;10388048;28;20041;-82
2022/08/17 13:18:06;;;;;;;3.83;3.40;;;;;;;28.42;36.70;99824.84;10392661;28;20051;-79
2022/08/17 13:23:19;;;;;;;7.80;3.30;;;;;;;28.55;37.01;99829.16;10401967;28;20049;-79
2022/08/17 13:28:26;;;;;;;3.55;3.15;;;;;;;28.65;36.84;99821.00;10431738;28;20042;-82
2022/08/17 13:33:37;;;;;;;7.75;3.40;;;;;;;28.78;36.55;99825.31;10392590;28;20045;-80
2022/08/17 13:38:49;;;;;;;10.48;3.30;;;;;;;29.03;35.98;99820.06;10415873;28;20041;-81
2022/08/17 13:43:52;;;;;;;7.53;3.30;;;;;;;29.43;35.93;99809.69;10420561;28;20048;-79
2022/08/17 13:49:01;;;;;;;5.40;2.92;;;;;;;29.74;35.62;99808.88;10437622;28;20118;-79
2022/08/17 13:54:23;;;;;;;3.83;3.40;;;;;;;29.62;35.50;99801.84;10420813;28;20069;-79
2022/08/17 13:59:39;;;;;;;4.07;3.25;;;;;;;29.48;35.55;99804.19;10424343;28;20514;-79
2022/08/17 14:04:59;;;;;;;6.83;3.20;;;;;;;29.53;35.17;99804.25;10407974;28;20046;-79
2022/08/17 14:10:07;;;;;;;4.85;3.20;;;;;;;29.63;35.33;99796.06;10405669;28;20072;-79
2022/08/17 14:15:12;;;;;;;5.40;3.53;;;;;;;29.72;35.66;99790.84;10420015;28;20481;-79
2022/08/17 14:20:18;;;;;;;3.90;3.08;;;;;;;29.51;35.08;99790.69;10428494;28;20129;-79
2022/08/17 14:25:26;;;;;;;3.95;3.45;;;;;;;29.44;34.99;99779.00;10417355;28;20109;-79
2022/08/17 14:30:29;;;;;;;3.53;3.33;;;;;;;29.48;35.03;99782.06;10425980;28;20045;-79
2022/08/17 14:35:33;;;;;;;3.88;3.60;;;;;;;29.18;34.72;99782.63;10411604;28;20057;-80
2022/08/17 14:40:37;;;;;;;5.65;3.63;;;;;;;29.11;35.36;99777.31;10424257;28;20140;-79
2022/08/17 14:45:41;;;;;;;7.50;3.35;;;;;;;29.32;35.17;99792.19;10425404;28;20065;-78
2022/08/17 14:50:45;;;;;;;7.40;3.28;;;;;;;29.66;34.84;99778.09;10416176;28;20059;-80
2022/08/17 14:55:51;;;;;;;4.18;3.30;;;;;;;29.85;34.82;99789.56;10418952;28;20048;-80
2022/08/17 15:00:54;;;;;;;4.40;3.15;;;;;;;29.67;34.67;99796.34;10414347;28;20037;-79
2022/08/17 15:05:57;;;;;;;3.97;3.53;;;;;;;29.57;34.33;99780.50;10429704;28;20088;-78
2022/08/17 15:11:03;;;;;;;4.85;3.38;;;;;;;29.77;34.81;99785.38;10430708;28;20049;-79
2022/08/17 15:16:07;;;;;;;7.22;3.42;;;;;;;29.75;34.48;99779.25;10423402;28;20057;-79
2022/08/17 15:21:10;;;;;;;3.65;3.25;;;;;;;29.68;34.39;99776.72;10425970;28;20072;-79
2022/08/17 15:26:15;;;;;;;4.13;3.60;;;;;;;29.77;34.10;99772.34;10417708;28;20045;-78
2022/08/17 15:31:18;;;;;;;3.92;3.35;;;;;;;29.79;34.41;99766.56;10420158;28;20033;-78
2022/08/17 15:36:33;;;;;;;5.10;3.13;;;;;;;29.81;34.22;99762.44;10420150;28;20125;-78
2022/08/17 15:41:38;;;;;;;3.83;3.50;;;;;;;31.02;32.76;99753.22;10409380;28;20049;-80
2022/08/17 15:46:41;;;;;;;3.05;2.72;;;;;;;31.62;31.43;99754.34;10408152;28;20120;-80
2022/08/17 15:51:45;;;;;;;3.60;3.05;;;;;;;30.76;32.03;99744.03;10429612;28;20097;-79
2022/08/17 15:56:49;;;;;;;3.50;3.30;;;;;;;30.14;32.99;99734.66;10429308;28;20072;-79
2022/08/17 16:01:53;;;;;;;2.90;2.70;;;;;;;30.73;31.59;99730.75;10425282;28;20060;-79
2022/08/17 16:07:17;;;;;;;2.78;2.58;;;;;;;30.37;31.91;99730.59;10397919;28;20403;-77
2022/08/17 16:12:28;;;;;;;2.92;2.67;;;;;;;30.85;31.10;99725.75;10405069;28;20464;-80
2022/08/17 16:17:31;;;;;;;2.92;2.50;;;;;;;30.93;30.65;99724.38;10393888;28;20061;-79
2022/08/17 16:22:44;;;;;;;3.03;2.83;;;;;;;30.12;31.66;99718.28;10410926;28;20053;-79
2022/08/17 16:27:52;;;;;;;3.65;3.17;;;;;;;29.76;31.90;99722.81;10403234;28;20052;-79
2022/08/17 16:32:57;;;;;;;3.25;2.92;;;;;;;29.38;32.60;99710.91;10412915;28;20480;-79
2022/08/17 16:38:01;;;;;;;3.08;2.67;;;;;;;28.81;33.30;99705.97;10415823;28;20068;-80
2022/08/17 16:43:09;;;;;;;2.53;2.42;;;;;;;28.57;33.89;99708.22;10422057;28;20037;-77
2022/08/17 16:48:14;;;;;;;3.28;2.70;;;;;;;28.39;34.53;99712.13;10390684;28;20042;-77
2022/08/17 16:53:18;;;;;;;3.20;3.00;;;;;;;28.47;34.51;99720.78;10396181;28;20049;-76
2022/08/17 16:58:23;;;;;;;3.78;3.22;;;;;;;28.47;34.48;99725.50;10410675;28;20042;-76
2022/08/17 17:03:29;;;;;;;3.75;2.50;;;;;;;28.53;35.02;99729.16;10393462;28;20046;-77
2022/08/17 17:08:35;;;;;;;3.05;2.75;;;;;;;28.68;34.61;99732.91;10407576;28;20053;-79
2022/08/17 17:13:52;;;;;;;3.30;2.60;;;;;;;28.91;34.71;99744.78;10410024;28;20096;-77
2022/08/17 17:19:07;;;;;;;3.95;2.83;;;;;;;29.06;35.58;99744.06;10423834;28;20056;-79
2022/08/17 17:24:16;;;;;;;3.28;2.95;;;;;;;29.24;35.81;99748.41;10409475;28;20053;-78
2022/08/17 17:29:33;;;;;;;3.20;2.85;;;;;;;29.46;36.33;99746.38;10411712;28;20053;-75
2022/08/17 17:34:54;;;;;;;4.57;3.03;;;;;;;29.82;35.37;99736.41;10389038;28;20075;-75
2022/08/17 17:40:01;;;;;;;3.20;3.00;;;;;;;28.59;37.80;99745.53;10407609;28;20088;-77
2022/08/17 17:45:14;;;;;;;3.35;3.05;;;;;;;27.80;39.44;99754.09;10412859;28;20041;-77
2022/08/17 17:50:21;;;;;;;3.22;2.97;;;;;;;27.36;41.30;99759.47;10399563;28;20045;-78
2022/08/17 17:55:33;;;;;;;3.60;3.30;;;;;;;27.03;41.16;99755.59;10403788;28;20057;-78
2022/08/17 18:00:46;;;;;;;3.83;3.08;;;;;;;26.75;41.42;99756.44;10403834;28;20042;-77
2022/08/17 18:06:04;;;;;;;3.50;3.20;;;;;;;26.57;42.12;99760.22;10410855;28;20091;-77
2022/08/17 18:11:20;;;;;;;3.90;3.55;;;;;;;26.35;42.16;99764.72;10413752;28;20049;-77
2022/08/17 18:16:30;;;;;;;3.92;3.40;;;;;;;26.26;42.03;99764.25;10399529;28;20042;-77
2022/08/17 18:21:37;;;;;;;3.58;3.35;;;;;;;26.21;42.41;99769.63;10399777;28;20053;-75
2022/08/17 18:26:49;;;;;;;3.17;2.85;;;;;;;26.12;42.58;99771.91;10425222;28;20041;-76
2022/08/17 18:37:37;;;;;;;4.30;3.25;;;;;;;25.73;43.34;99782.59;10573827;27;20388;-78
2022/08/17 18:42:40;;;;;;;4.35;3.17;;;;;;;25.60;42.70;99780.88;10573773;28;20040;-77
2022/08/17 18:47:54;;;;;;;5.40;3.33;;;;;;;25.62;42.13;99787.00;10561430;28;20044;-78
2022/08/17 18:53:20;;;;;;;3.40;3.10;;;;;;;25.61;41.49;99793.53;10531127;28;20037;-76
2022/08/17 18:58:28;;;;;;;6.83;3.53;;;;;;;25.24;42.57;99800.31;10546108;28;20417;-75
2022/08/17 19:03:31;;;;;;;9.68;4.32;;;;;;;24.45;46.17;99812.13;10564477;28;20040;-74
2022/08/17 19:08:36;;;;;;;6.35;5.75;;;;;;;23.56;51.35;99844.41;10570361;28;20048;-75
2022/08/17 19:13:43;;;;;;;8.93;7.63;;;;;;;23.81;52.31;99825.22;10543555;28;20455;-76
2022/08/17 19:18:51;;;;;;;11.60;10.30;;;;;;;23.91;52.90;99838.41;10534978;28;20551;-75
2022/08/17 19:24:03;;;;;;;14.85;11.85;;;;;;;23.53;54.58;99843.97;10552947;28;20106;-76
2022/08/17 19:29:15;;;;;;;17.05;13.23;;;;;;;23.51;54.75;99848.88;10571260;28;20100;-76
2022/08/17 19:34:21;;;;;;;16.02;13.50;;;;;;;23.38;55.39;99847.06;10559498;28;20500;-76
2022/08/17 19:39:46;;;;;;;19.95;14.70;;;;;;;23.12;56.15;99846.19;10563332;28;20044;-78
2022/08/17 19:45:00;;;;;;;18.85;15.63;;;;;;;23.12;57.01;99848.91;10549324;28;20050;-78
2022/08/17 19:50:11;;;;;;;18.40;15.15;;;;;;;22.96;57.36;99833.81;10527939;28;20040;-78
2022/08/17 19:55:25;;;;;;;22.55;18.48;;;;;;;23.05;58.12;99842.59;10518281;28;20062;-77
2022/08/17 20:00:29;;;;;;;25.75;20.25;;;;;;;23.09;58.44;99849.34;10534040;28;20048;-77
2022/08/17 20:05:35;;;;;;;28.20;24.63;;;;;;;22.68;59.71;99857.94;10540118;28;20043;-77
2022/08/17 20:11:07;;;;;;;28.98;24.52;;;;;;;22.41;61.22;99868.13;10522083;28;20044;-77
2022/08/17 20:16:11;;;;;;;27.20;24.48;;;;;;;22.33;61.94;99878.22;10533599;28;20047;-76
2022/08/17 20:21:19;;;;;;;30.77;27.30;;;;;;;22.24;63.22;99885.00;10531069;28;20052;-77
2022/08/17 20:26:28;;;;;;;29.23;25.63;;;;;;;22.07;64.03;99891.94;10519998;28;20044;-77
2022/08/17 20:31:44;;;;;;;30.42;26.88;;;;;;;22.24;63.58;99887.72;10524974;28;20063;-77
2022/08/17 20:36:59;;;;;;;33.63;29.45;;;;;;;22.39;63.87;99897.59;10516123;28;20044;-78
2022/08/17 20:42:08;;;;;;;42.00;32.03;;;;;;;22.06;65.40;99899.31;10501307;28;20032;-77
2022/08/17 20:47:18;;;;;;;37.28;32.47;;;;;;;22.22;65.20;99891.72;10516706;28;20035;-78
2022/08/17 20:52:48;;;;;;;42.63;34.70;;;;;;;22.23;65.27;99907.06;10519138;28;20138;-78
2022/08/17 20:57:52;;;;;;;37.83;33.13;;;;;;;22.11;65.83;99904.16;10516967;28;20048;-78
2022/08/17 21:03:43;;;;;;;40.55;33.20;;;;;;;22.27;65.80;99920.13;10518502;28;20106;-78
2022/08/17 21:08:57;;;;;;;39.78;35.45;;;;;;;21.86;67.58;99921.19;10511936;28;20044;-78
2022/08/17 21:14:13;;;;;;;44.20;38.15;;;;;;;21.42;69.95;99924.47;10514534;28;20055;-78
2022/08/17 21:19:34;;;;;;;45.90;37.47;;;;;;;21.70;68.89;99931.66;10512301;28;20394;-79
2022/08/17 21:25:08;;;;;;;41.88;36.92;;;;;;;21.78;68.33;99931.50;10523560;28;20046;-78
2022/08/17 21:30:21;;;;;;;46.70;40.92;;;;;;;21.63;69.24;99928.91;10504077;28;20036;-77
2022/08/17 21:35:47;;;;;;;50.72;39.72;;;;;;;21.68;69.07;99935.44;10539510;28;20442;-78
2022/08/17 21:40:53;;;;;;;45.67;39.85;;;;;;;21.77;68.90;99941.56;10523890;28;20062;-79
2022/08/17 21:46:02;;;;;;;51.30;43.28;;;;;;;21.93;68.66;99944.94;10519225;28;20496;-79
2022/08/17 21:51:10;;;;;;;53.03;44.30;;;;;;;21.58;69.62;99948.63;10518689;28;20054;-79
2022/08/17 21:56:23;;;;;;;55.05;44.22;;;;;;;21.60;69.88;99946.56;10520442;28;20051;-79
2022/08/17 22:01:30;;;;;;;53.65;44.72;;;;;;;21.82;69.21;99949.97;10532257;28;20044;-78
2022/08/17 22:06:36;;;;;;;52.30;43.22;;;;;;;21.81;69.53;99956.50;10517106;28;20048;-78
2022/08/17 22:11:56;;;;;;;54.33;43.63;;;;;;;21.72;69.93;99963.22;10517107;28;20051;-78
2022/08/17 22:17:16;;;;;;;61.08;47.30;;;;;;;21.12;72.64;99970.38;10510669;28;20452;-77
2022/08/17 22:22:26;;;;;;;53.22;44.22;;;;;;;21.08;73.35;99980.00;10519412;28;20090;-79
2022/08/17 22:27:47;;;;;;;64.72;50.38;;;;;;;20.63;75.01;99969.47;10511265;28;20036;-77
2022/08/17 22:32:52;;;;;;;67.70;49.45;;;;;;;20.22;78.01;99993.88;10519238;28;20040;-78
2022/08/17 22:37:55;;;;;;;66.63;52.38;;;;;;;20.19;78.24;100005.19;10503882;28;20044;-78
2022/08/17 22:43:00;;;;;;;75.55;57.17;;;;;;;20.22;77.85;99992.00;10518167;28;20056;-77
2022/08/17 22:48:05;;;;;;;79.00;57.35;;;;;;;20.45;77.20;99994.50;10525882;28;20048;-78
2022/08/17 23:04:14;;;;;;;77.90;56.42;;;;;;;20.02;79.03;100008.19;10510705;28;20565;-78
2022/08/17 23:09:17;;;;;;;72.30;52.50;;;;;;;20.24;77.40;99994.50;10529546;28;20040;-78
2022/08/17 23:14:21;;;;;;;68.50;52.08;;;;;;;20.19;77.10;99995.13;10513432;28;20045;-77
2022/08/17 23:19:26;;;;;;;66.80;50.90;;;;;;;19.82;78.10;99994.34;10521593;28;20454;-78
2022/08/17 23:24:34;;;;;;;62.85;46.85;;;;;;;19.95;77.38;100000.97;10517192;28;20056;-78
2022/08/17 23:29:40;;;;;;;63.30;48.58;;;;;;;20.04;76.62;100011.53;10511069;28;20051;-76
2022/08/17 23:34:46;;;;;;;62.25;44.60;;;;;;;19.71;77.19;100013.09;10500308;28;20055;-79
2022/08/17 23:39:49;;;;;;;53.28;40.92;;;;;;;19.89;76.24;100017.06;10507829;28;20044;-77
2022/08/17 23:44:52;;;;;;;53.55;39.65;;;;;;;19.33;78.12;100005.91;10499922;28;20451;-78
2022/08/17 23:49:56;;;;;;;51.35;40.05;;;;;;;19.68;77.21;99998.81;10499709;28;20105;-78
2022/08/17 23:55:05;;;;;;;47.03;38.38;;;;;;;19.85;76.55;100006.75;10508503;28;20075;-78
